Time;durP1;ratioP1;P1;durP2;ratioP2;P2;SDS_P1;SDS_P2;PMS_P1;PMS_P2;Temp;Humidity;BMP_temperature;BMP_pressure;BME280_temperature;BME280_humidity;BME280_pressure;Samples;Min_cycle;Max_cycle;Signal;HPM_P1;HPM_P2
2023/06/11 00:01:40;;;;;;;5.15;3.53;;;;;;;18.07;46.29;100736.19;5134230;27;20275;-67
2023/06/11 00:04:08;;;;;;;6.07;3.60;;;;;;;18.06;46.43;100744.94;5128498;27;20616;-66
2023/06/11 00:06:39;;;;;;;6.22;3.40;;;;;;;18.03;46.11;100738.06;5131875;27;20207;-67
2023/06/11 00:09:07;;;;;;;5.82;3.25;;;;;;;17.98;45.95;100734.75;5128853;27;20231;-66
2023/06/11 00:11:41;;;;;;;5.57;3.92;;;;;;;17.94;46.04;100740.97;5134885;27;20713;-67
2023/06/11 00:14:10;;;;;;;5.72;3.13;;;;;;;17.90;46.02;100738.50;5127454;27;20294;-67
2023/06/11 00:16:40;;;;;;;6.15;3.40;;;;;;;17.90;45.79;100738.50;5127174;27;20241;-67
2023/06/11 00:19:09;;;;;;;5.07;3.42;;;;;;;17.88;45.59;100746.34;5130411;27;20232;-66
2023/06/11 00:21:40;;;;;;;5.22;3.20;;;;;;;17.86;45.63;100738.59;5126885;27;20203;-66
2023/06/11 00:24:08;;;;;;;7.00;2.90;;;;;;;17.80;45.67;100745.75;5125367;27;20244;-65
2023/06/11 00:26:37;;;;;;;4.07;3.20;;;;;;;17.80;45.49;100743.97;5126859;27;20211;-67
2023/06/11 00:29:05;;;;;;;4.88;2.92;;;;;;;17.71;45.41;100746.84;5130617;27;20233;-66
2023/06/11 00:31:33;;;;;;;4.00;2.55;;;;;;;17.63;45.37;100735.78;5127236;27;20564;-66
2023/06/11 00:34:01;;;;;;;5.55;3.35;;;;;;;17.58;45.49;100748.94;5133764;27;20207;-66
2023/06/11 00:36:29;;;;;;;3.13;2.83;;;;;;;17.55;45.26;100748.19;5126485;27;20199;-66
2023/06/11 00:38:58;;;;;;;4.25;2.97;;;;;;;17.57;45.41;100746.41;5129782;27;20722;-66
2023/06/11 00:41:29;;;;;;;3.45;2.67;;;;;;;17.55;45.11;100751.63;5131578;27;20240;-66
2023/06/11 00:43:57;;;;;;;5.47;3.10;;;;;;;17.50;44.96;100747.47;5130161;27;20554;-65
2023/06/11 00:46:26;;;;;;;3.53;2.58;;;;;;;17.43;44.88;100749.38;5128098;27;20211;-65
2023/06/11 00:48:55;;;;;;;3.80;2.70;;;;;;;17.33;45.13;100748.78;5130827;27;20533;-65
2023/06/11 00:51:24;;;;;;;3.58;3.03;;;;;;;17.28;45.24;100745.47;5130467;27;20195;-65
2023/06/11 00:53:53;;;;;;;5.75;2.80;;;;;;;17.26;45.25;100749.00;5132326;27;20311;-66
2023/06/11 00:56:26;;;;;;;9.15;3.05;;;;;;;17.27;45.30;100751.59;5128341;27;20658;-66
2023/06/11 00:58:54;;;;;;;3.97;2.75;;;;;;;17.24;45.14;100754.28;5130364;27;20198;-66
2023/06/11 01:01:29;;;;;;;3.80;2.83;;;;;;;17.22;45.27;100750.00;5130852;27;20711;-65
2023/06/11 01:04:00;;;;;;;3.35;2.65;;;;;;;17.18;44.71;100753.56;5125468;27;20235;-66
2023/06/11 01:06:33;;;;;;;6.03;2.92;;;;;;;17.12;44.84;100751.97;5126056;27;20202;-65
2023/06/11 01:09:04;;;;;;;3.47;2.63;;;;;;;17.10;44.95;100752.03;5120814;27;20239;-66
2023/06/11 01:11:34;;;;;;;3.42;2.55;;;;;;;17.10;44.65;100754.63;5130838;27;20203;-67
2023/06/11 01:14:04;;;;;;;4.03;2.63;;;;;;;17.06;44.92;100754.78;5126662;27;20194;-66
2023/06/11 01:16:38;;;;;;;3.67;2.78;;;;;;;17.01;44.81;100754.91;5128002;27;20219;-66
2023/06/11 01:19:20;;;;;;;4.20;2.50;;;;;;;17.01;44.76;100762.72;5132556;27;20251;-66
2023/06/11 01:22:00;;;;;;;6.18;2.40;;;;;;;16.99;44.68;100766.25;5125032;27;20858;-67
2023/06/11 01:24:40;;;;;;;3.30;2.58;;;;;;;17.00;44.32;100765.34;5127751;27;20599;-66
2023/06/11 01:27:19;;;;;;;6.85;2.33;;;;;;;16.92;43.78;100759.47;5129825;27;20195;-67
2023/06/11 01:29:50;;;;;;;5.57;2.50;;;;;;;16.88;44.23;100772.56;5126392;27;20206;-65
2023/06/11 01:32:23;;;;;;;3.67;2.42;;;;;;;16.84;44.05;100778.75;5127745;27;20204;-65
2023/06/11 01:34:59;;;;;;;3.90;2.78;;;;;;;16.79;44.34;100777.16;5130052;27;20205;-66
2023/06/11 01:37:32;;;;;;;3.53;2.00;;;;;;;16.80;44.17;100781.47;5129472;27;20731;-66
2023/06/11 01:40:00;;;;;;;3.55;1.98;;;;;;;16.78;44.26;100778.91;5125637;27;20644;-66
2023/06/11 01:42:28;;;;;;;2.85;2.33;;;;;;;16.80;44.36;100784.94;5126965;27;20238;-66
2023/06/11 01:44:57;;;;;;;4.32;2.20;;;;;;;16.76;44.02;100782.47;5127372;27;20552;-65
2023/06/11 01:47:27;;;;;;;6.05;2.35;;;;;;;16.71;44.06;100779.91;5126513;27;20210;-66
2023/06/11 01:49:55;;;;;;;5.15;2.92;;;;;;;16.67;44.09;100786.94;5132316;27;20210;-65
2023/06/11 01:52:24;;;;;;;4.85;2.20;;;;;;;16.69;44.34;100786.06;5133594;27;20207;-65
2023/06/11 01:54:52;;;;;;;3.80;2.17;;;;;;;16.69;44.31;100792.13;5136123;27;20195;-65
2023/06/11 01:57:20;;;;;;;5.47;2.53;;;;;;;16.71;44.12;100792.06;5132508;27;20214;-68
2023/06/11 01:59:48;;;;;;;2.97;2.20;;;;;;;16.69;44.36;100786.94;5132992;27;20294;-65
2023/06/11 02:02:17;;;;;;;4.80;2.65;;;;;;;16.70;44.72;100793.81;5130663;27;20199;-65
2023/06/11 02:04:45;;;;;;;7.75;2.60;;;;;;;16.69;44.33;100802.53;5131354;27;20229;-64
2023/06/11 02:07:13;;;;;;;2.50;2.10;;;;;;;16.66;44.30;100805.22;5131251;27;20198;-66
2023/06/11 02:09:41;;;;;;;4.03;2.22;;;;;;;16.61;44.34;100801.88;5132054;27;20199;-66
2023/06/11 02:12:09;;;;;;;4.72;2.53;;;;;;;16.57;44.85;100805.41;5135593;27;20254;-64
2023/06/11 02:14:37;;;;;;;4.63;2.30;;;;;;;16.53;44.45;100806.38;5134296;27;20214;-64
2023/06/11 02:17:05;;;;;;;2.63;2.22;;;;;;;16.49;44.48;100807.34;5127181;27;20257;-65
2023/06/11 02:19:35;;;;;;;7.22;2.65;;;;;;;16.48;44.52;100803.06;5133837;27;20256;-65
2023/06/11 02:22:03;;;;;;;3.33;2.30;;;;;;;16.45;44.57;100808.31;5131192;27;20194;-65
2023/06/11 02:24:31;;;;;;;3.65;2.20;;;;;;;16.43;44.27;100805.78;5135951;27;20230;-67
2023/06/11 02:26:58;;;;;;;3.70;2.20;;;;;;;16.41;44.51;100812.75;5136234;27;20195;-64
2023/06/11 02:29:26;;;;;;;3.90;2.20;;;;;;;16.37;44.09;100814.56;5128853;27;20666;-64
2023/06/11 02:31:54;;;;;;;2.90;1.92;;;;;;;16.30;44.02;100814.72;5130156;27;20284;-66
2023/06/11 02:34:22;;;;;;;8.30;1.98;;;;;;;16.26;44.65;100819.16;5135980;27;20207;-65
2023/06/11 02:36:52;;;;;;;3.53;1.90;;;;;;;16.24;44.26;100814.88;5132652;27;20309;-65
2023/06/11 02:39:20;;;;;;;6.35;2.15;;;;;;;16.18;44.49;100831.47;5132465;27;20202;-65
2023/06/11 02:41:48;;;;;;;4.30;1.60;;;;;;;16.17;44.76;100828.03;5136487;27;20211;-66
2023/06/11 02:44:16;;;;;;;2.90;2.00;;;;;;;16.14;44.48;100822.03;5135587;27;20206;-65
2023/06/11 02:46:44;;;;;;;3.97;2.13;;;;;;;16.11;44.04;100829.91;5134729;27;20298;-65
2023/06/11 02:49:12;;;;;;;6.35;2.45;;;;;;;16.10;44.05;100833.38;5123956;27;20199;-65
2023/06/11 02:51:40;;;;;;;3.95;2.00;;;;;;;16.11;44.29;100840.28;5132680;27;20203;-65
2023/06/11 02:54:09;;;;;;;2.22;2.03;;;;;;;16.03;44.18;100837.00;5128730;27;20195;-64
2023/06/11 02:56:37;;;;;;;3.45;2.47;;;;;;;16.03;44.75;100844.81;5128142;27;20215;-65
2023/06/11 02:59:05;;;;;;;3.20;2.10;;;;;;;15.98;44.53;100837.13;5132330;27;20576;-65
2023/06/11 03:01:33;;;;;;;3.88;2.20;;;;;;;15.92;44.70;100835.47;5134345;27;20199;-67
2023/06/11 03:04:01;;;;;;;3.20;2.35;;;;;;;15.88;44.92;100844.22;5131757;27;20707;-64
2023/06/11 03:06:29;;;;;;;5.50;2.40;;;;;;;15.88;44.73;100843.38;5129124;27;20191;-65
2023/06/11 03:08:57;;;;;;;7.47;2.08;;;;;;;15.86;44.99;100845.16;5133744;27;20211;-65
2023/06/11 03:11:26;;;;;;;4.50;2.05;;;;;;;15.85;44.85;100849.50;5126239;27;20203;-64
2023/06/11 03:13:54;;;;;;;3.88;2.38;;;;;;;15.88;44.91;100849.44;5127247;27;20541;-67
2023/06/11 03:16:22;;;;;;;5.40;1.90;;;;;;;15.89;44.69;100851.13;5123460;27;20219;-66
2023/06/11 03:18:51;;;;;;;6.47;2.20;;;;;;;15.87;44.85;100847.72;5138051;27;20227;-65
2023/06/11 03:21:19;;;;;;;5.18;2.10;;;;;;;15.88;45.06;100857.22;5135891;27;20195;-65
2023/06/11 03:23:47;;;;;;;6.00;1.90;;;;;;;15.86;44.68;100851.19;5126553;27;20203;-65
2023/06/11 03:26:15;;;;;;;4.75;1.88;;;;;;;15.81;45.23;100850.44;5134901;27;20317;-65
2023/06/11 03:28:44;;;;;;;3.75;1.77;;;;;;;15.79;44.97;100847.00;5120815;27;20195;-65
2023/06/11 03:31:13;;;;;;;2.95;2.45;;;;;;;15.79;44.93;100854.81;5132140;27;20286;-67
2023/06/11 03:33:40;;;;;;;2.50;1.98;;;;;;;15.78;44.79;100857.44;5129719;27;20199;-65
2023/06/11 03:36:08;;;;;;;3.35;2.00;;;;;;;15.74;45.12;100859.25;5135093;27;20203;-65
2023/06/11 03:38:36;;;;;;;4.13;1.67;;;;;;;15.71;45.14;100854.09;5134224;27;20206;-65
2023/06/11 03:41:04;;;;;;;2.60;2.15;;;;;;;15.71;45.37;100861.91;5129366;27;20213;-65
2023/06/11 03:43:32;;;;;;;2.30;1.80;;;;;;;15.68;45.40;100865.44;5132664;27;20207;-66
2023/06/11 03:46:02;;;;;;;3.20;2.03;;;;;;;15.67;45.56;100863.69;5128381;27;20622;-66
2023/06/11 03:48:30;;;;;;;2.47;1.90;;;;;;;15.61;45.42;100871.59;5129475;27;20204;-70
2023/06/11 03:50:58;;;;;;;8.82;2.00;;;;;;;15.63;45.60;100869.81;5124541;27;20207;-66
2023/06/11 03:53:27;;;;;;;2.63;1.90;;;;;;;15.65;45.63;100872.41;5131982;27;20301;-66
2023/06/11 03:55:55;;;;;;;2.60;1.83;;;;;;;15.67;45.68;100881.03;5130165;27;20200;-64
2023/06/11 03:58:23;;;;;;;3.13;2.20;;;;;;;15.74;45.83;100877.44;5134231;27;20234;-64
2023/06/11 04:00:51;;;;;;;4.90;2.28;;;;;;;15.70;45.70;100887.03;5126858;27;20207;-63
2023/06/11 04:03:21;;;;;;;2.97;2.28;;;;;;;15.74;45.41;100887.81;5127306;27;20650;-64
2023/06/11 04:05:49;;;;;;;2.10;1.90;;;;;;;15.81;45.63;100889.44;5127393;27;20199;-63
2023/06/11 04:08:17;;;;;;;3.28;2.30;;;;;;;15.86;45.43;100887.56;5129299;27;20192;-64
2023/06/11 04:10:45;;;;;;;2.47;1.90;;;;;;;15.90;44.92;100886.63;5131334;27;20280;-65
2023/06/11 04:13:13;;;;;;;4.55;2.42;;;;;;;15.93;45.04;100891.78;5133220;27;20203;-65
2023/06/11 04:15:41;;;;;;;6.45;2.38;;;;;;;16.01;44.67;100893.34;5132649;27;20624;-64
2023/06/11 04:18:09;;;;;;;2.45;2.15;;;;;;;16.09;45.14;100889.72;5135499;27;20208;-65
2023/06/11 04:20:39;;;;;;;9.15;2.53;;;;;;;16.24;44.41;100892.88;5125263;27;20207;-64
2023/06/11 04:23:07;;;;;;;2.22;1.98;;;;;;;16.34;44.15;100899.59;5128323;27;20205;-63
2023/06/11 04:25:39;;;;;;;2.55;1.83;;;;;;;16.42;44.22;100910.69;5132590;27;20255;-63
2023/06/11 04:28:07;;;;;;;2.38;2.10;;;;;;;16.49;43.83;100901.00;5130672;27;20620;-64
2023/06/11 04:30:36;;;;;;;4.13;2.30;;;;;;;16.56;43.95;100908.63;5133081;27;20568;-64
2023/06/11 04:33:04;;;;;;;2.72;1.90;;;;;;;16.63;43.47;100896.34;5130113;27;20310;-64
2023/06/11 04:35:34;;;;;;;3.35;2.03;;;;;;;16.67;43.29;100904.03;5128123;27;20256;-65
2023/06/11 04:38:04;;;;;;;4.68;2.40;;;;;;;16.72;43.21;100900.50;5126281;27;20256;-64
2023/06/11 04:40:33;;;;;;;6.65;1.95;;;;;;;16.80;42.78;100903.81;5132124;27;20199;-65
2023/06/11 04:43:02;;;;;;;5.22;2.20;;;;;;;16.90;43.01;100895.75;5131517;27;20252;-64
2023/06/11 04:45:30;;;;;;;5.35;1.80;;;;;;;17.07;42.57;100899.69;5128634;27;20533;-64
2023/06/11 04:48:03;;;;;;;3.33;2.00;;;;;;;17.19;42.02;100901.97;5128527;27;20578;-64
2023/06/11 04:50:31;;;;;;;2.85;1.70;;;;;;;17.27;41.95;100902.66;5129568;27;20210;-64
2023/06/11 04:53:01;;;;;;;2.53;2.03;;;;;;;17.27;41.47;100899.16;5124530;27;20207;-64
2023/06/11 04:55:32;;;;;;;4.38;1.90;;;;;;;17.33;41.68;100902.47;5129102;27;20566;-64
2023/06/11 04:58:00;;;;;;;4.28;1.83;;;;;;;17.38;41.27;100913.66;5129349;27;20619;-64
2023/06/11 05:00:29;;;;;;;2.85;1.90;;;;;;;17.42;41.64;100905.75;5136300;27;20569;-64
2023/06/11 05:03:01;;;;;;;3.15;1.88;;;;;;;17.56;41.42;100903.63;5127871;27;20215;-64
2023/06/11 05:05:30;;;;;;;1.88;1.67;;;;;;;17.76;41.07;100906.59;5130387;27;20218;-64
2023/06/11 05:07:58;;;;;;;2.45;1.63;;;;;;;17.97;40.86;100912.09;5129834;27;20603;-65
2023/06/11 05:10:26;;;;;;;2.35;1.70;;;;;;;18.13;40.35;100910.78;5125779;27;20202;-64
2023/06/11 05:12:55;;;;;;;3.72;2.00;;;;;;;18.29;39.92;100909.41;5132128;27;20562;-66
2023/06/11 05:15:23;;;;;;;4.88;1.90;;;;;;;18.62;39.43;100911.91;5121732;27;20211;-66
2023/06/11 05:17:53;;;;;;;3.05;1.98;;;;;;;19.19;38.66;100913.59;5132092;27;20218;-66
2023/06/11 05:20:26;;;;;;;3.85;2.20;;;;;;;20.04;36.97;100911.53;5129661;27;20248;-66
2023/06/11 05:22:58;;;;;;;4.20;1.98;;;;;;;20.84;35.30;100903.22;5131887;27;20202;-66
2023/06/11 05:25:28;;;;;;;1.88;1.73;;;;;;;21.29;32.98;100910.13;5128296;27;20309;-65
2023/06/11 05:28:00;;;;;;;3.90;1.75;;;;;;;21.76;32.85;100908.09;5126823;27;20283;-65
2023/06/11 05:30:29;;;;;;;3.53;2.20;;;;;;;22.25;32.21;100905.06;5136665;27;20544;-66
2023/06/11 05:32:58;;;;;;;3.40;1.80;;;;;;;22.83;31.58;100907.53;5129062;27;20577;-65
2023/06/11 05:35:26;;;;;;;4.10;2.08;;;;;;;23.10;30.86;100906.19;5130898;27;20230;-66
2023/06/11 05:37:55;;;;;;;2.67;1.80;;;;;;;23.10;30.84;100908.81;5134149;27;20219;-64
2023/06/11 05:40:23;;;;;;;2.92;1.88;;;;;;;23.06;31.17;100911.69;5135256;27;20579;-65
2023/06/11 05:42:51;;;;;;;3.45;1.90;;;;;;;22.44;31.18;100913.75;5131790;27;20208;-65
2023/06/11 05:45:20;;;;;;;3.88;2.35;;;;;;;22.17;32.57;100923.78;5128889;27;20612;-66
2023/06/11 05:47:48;;;;;;;2.53;1.67;;;;;;;22.09;32.95;100921.47;5133956;27;20200;-66
2023/06/11 05:50:16;;;;;;;5.20;2.00;;;;;;;21.99;33.07;100925.44;5132544;27;20196;-66
2023/06/11 05:52:45;;;;;;;1.50;1.40;;;;;;;22.06;33.43;100919.00;5135898;27;20207;-65
2023/06/11 05:55:13;;;;;;;1.48;1.38;;;;;;;22.15;32.66;100923.84;5131370;27;20199;-65
2023/06/11 05:57:41;;;;;;;5.78;1.92;;;;;;;22.08;32.37;100922.38;5129967;27;20199;-65
2023/06/11 06:00:12;;;;;;;1.80;1.70;;;;;;;21.98;32.85;100918.47;5132255;27;20204;-65
2023/06/11 06:02:41;;;;;;;3.85;1.70;;;;;;;21.97;33.03;100922.00;5137533;27;20607;-65
2023/06/11 06:05:09;;;;;;;2.17;1.80;;;;;;;21.98;32.91;100918.47;5131675;27;20199;-65
2023/06/11 06:07:38;;;;;;;6.28;2.03;;;;;;;21.79;32.71;100920.22;5127992;27;20289;-67
2023/06/11 06:10:07;;;;;;;1.85;1.73;;;;;;;21.52;33.59;100925.75;5134099;27;20246;-65
2023/06/11 06:12:34;;;;;;;3.20;1.70;;;;;;;21.36;33.73;100925.56;5131826;27;20199;-64
2023/06/11 06:15:03;;;;;;;2.85;1.80;;;;;;;21.33;34.28;100930.91;5130307;27;20294;-65
2023/06/11 06:17:31;;;;;;;2.47;1.65;;;;;;;21.37;34.15;100932.50;5124057;27;20616;-65
2023/06/11 06:20:00;;;;;;;1.77;1.67;;;;;;;21.52;33.78;100938.84;5125962;27;20214;-64
2023/06/11 06:22:28;;;;;;;4.35;2.13;;;;;;;21.65;34.09;100934.78;5126912;27;20241;-65
2023/06/11 06:24:56;;;;;;;2.83;2.30;;;;;;;21.70;33.79;100932.81;5123816;27;20231;-65
2023/06/11 06:27:28;;;;;;;3.03;1.90;;;;;;;21.51;33.50;100926.66;5119869;27;20192;-66
2023/06/11 06:29:56;;;;;;;2.00;1.80;;;;;;;21.25;34.07;100932.97;5127303;27;20322;-67
2023/06/11 06:32:24;;;;;;;3.88;1.67;;;;;;;21.30;34.21;100930.16;5126862;27;20608;-65
2023/06/11 06:34:52;;;;;;;4.30;1.80;;;;;;;21.42;34.45;100934.91;5136570;27;20207;-65
2023/06/11 06:37:22;;;;;;;2.15;1.60;;;;;;;21.51;34.25;100939.78;5129841;27;20566;-65
2023/06/11 06:39:50;;;;;;;7.03;1.75;;;;;;;21.48;33.85;100934.66;5137080;27;20268;-65
2023/06/11 06:42:19;;;;;;;3.30;1.75;;;;;;;21.45;34.16;100930.38;5124486;27;20296;-67
2023/06/11 06:44:47;;;;;;;3.15;1.70;;;;;;;21.50;33.99;100938.06;5125400;27;20206;-65
2023/06/11 06:47:15;;;;;;;4.25;1.88;;;;;;;21.66;33.97;100933.03;5125591;27;20198;-65
2023/06/11 06:49:44;;;;;;;1.92;1.83;;;;;;;21.69;33.58;100928.50;5130758;27;22230;-67
2023/06/11 06:52:12;;;;;;;2.53;1.90;;;;;;;21.59;33.28;100927.19;5121075;27;20207;-70
2023/06/11 06:54:42;;;;;;;4.20;3.25;;;;;;;21.65;33.46;100926.94;5112220;27;20947;-65
2023/06/11 06:57:10;;;;;;;6.60;2.42;;;;;;;21.79;33.33;100928.06;5113931;27;20298;-62
2023/06/11 06:59:38;;;;;;;4.60;1.75;;;;;;;22.05;32.87;100943.50;5121119;27;20282;-62
2023/06/11 07:02:07;;;;;;;1.70;1.60;;;;;;;21.95;32.34;100931.75;5130941;27;20199;-66
2023/06/11 07:04:37;;;;;;;1.88;1.58;;;;;;;21.85;31.80;100930.44;5124856;27;20204;-66
2023/06/11 07:07:05;;;;;;;2.70;1.60;;;;;;;21.78;32.13;100929.00;5133999;27;20199;-65
2023/06/11 07:09:33;;;;;;;3.13;1.90;;;;;;;21.80;32.22;100929.78;5134308;27;20200;-66
2023/06/11 07:12:03;;;;;;;3.35;2.42;;;;;;;21.90;32.33;100923.22;5133510;27;20299;-67
2023/06/11 07:14:32;;;;;;;3.30;2.50;;;;;;;22.01;32.00;100920.09;5132486;27;20541;-68
2023/06/11 07:17:00;;;;;;;2.28;1.58;;;;;;;21.94;31.26;100927.38;5132980;27;20196;-65
2023/06/11 07:19:28;;;;;;;3.20;1.75;;;;;;;21.65;31.56;100928.66;5134256;27;20207;-66
2023/06/11 07:21:56;;;;;;;5.40;1.80;;;;;;;21.51;31.45;100926.66;5129544;27;20199;-67
2023/06/11 07:24:24;;;;;;;3.65;1.40;;;;;;;21.37;31.51;100926.41;5126638;27;20238;-65
2023/06/11 07:26:52;;;;;;;2.17;1.98;;;;;;;21.41;31.54;100935.84;5129585;27;20210;-67
2023/06/11 07:29:22;;;;;;;2.97;1.52;;;;;;;21.33;31.42;100935.28;5127447;27;20199;-75
2023/06/11 07:31:50;;;;;;;1.77;1.50;;;;;;;21.12;31.03;100919.50;5132958;27;20255;-74
2023/06/11 07:34:19;;;;;;;3.20;1.48;;;;;;;21.19;31.54;100938.47;5129309;27;20207;-74
2023/06/11 07:36:47;;;;;;;3.70;2.10;;;;;;;21.29;31.47;100938.94;5125379;27;20203;-72
2023/06/11 07:39:15;;;;;;;5.90;1.80;;;;;;;21.34;30.40;100944.88;5124248;27;20574;-73
2023/06/11 07:41:43;;;;;;;2.03;1.40;;;;;;;21.32;30.01;100942.31;5129453;27;20286;-74
2023/06/11 07:44:11;;;;;;;2.28;1.60;;;;;;;21.31;29.48;100931.84;5133586;27;20710;-73
2023/06/11 07:46:40;;;;;;;3.63;2.05;;;;;;;21.29;29.84;100933.72;5132167;27;20558;-74
2023/06/11 07:49:08;;;;;;;4.68;1.48;;;;;;;21.23;30.31;100930.41;5132809;27;20271;-73
2023/06/11 07:51:37;;;;;;;3.38;1.08;;;;;;;21.16;27.85;100918.47;5131636;27;20210;-74
2023/06/11 07:54:06;;;;;;;5.82;1.40;;;;;;;21.27;27.71;100931.13;5128415;27;20202;-73
2023/06/11 07:56:34;;;;;;;7.03;1.60;;;;;;;21.46;28.65;100931.25;5128749;27;20283;-73
2023/06/11 07:59:02;;;;;;;1.40;1.30;;;;;;;21.65;28.82;100924.31;5128567;27;20554;-72
2023/06/11 08:01:30;;;;;;;2.85;1.30;;;;;;;21.80;28.32;100930.66;5129754;27;20203;-74
2023/06/11 08:03:59;;;;;;;2.30;1.70;;;;;;;21.84;28.00;100931.38;5121149;27;20192;-74
2023/06/11 08:06:27;;;;;;;6.15;2.30;;;;;;;21.81;28.24;100919.22;5129846;27;20195;-73
2023/06/11 08:08:56;;;;;;;2.80;1.80;;;;;;;21.65;28.49;100932.19;5130678;27;20274;-72
2023/06/11 08:11:24;;;;;;;3.95;1.60;;;;;;;21.60;29.32;100926.25;5133024;27;20251;-74
2023/06/11 08:13:52;;;;;;;1.95;1.40;;;;;;;21.51;29.90;100931.91;5131366;27;20199;-74
2023/06/11 08:16:20;;;;;;;1.42;1.30;;;;;;;21.49;30.58;100925.88;5130903;27;20244;-76
2023/06/11 08:18:48;;;;;;;2.05;1.40;;;;;;;21.42;30.04;100927.03;5136316;27;20199;-76
2023/06/11 08:21:17;;;;;;;2.40;1.60;;;;;;;21.41;30.22;100933.22;5133806;27;20636;-74
2023/06/11 08:23:45;;;;;;;4.65;1.70;;;;;;;21.49;30.27;100936.34;5124949;27;20203;-75
2023/06/11 08:26:14;;;;;;;2.45;1.60;;;;;;;21.54;30.02;100912.56;5125578;27;21806;-74
2023/06/11 08:28:42;;;;;;;3.22;1.85;;;;;;;21.50;30.80;100917.06;5127519;27;20223;-73
2023/06/11 08:31:10;;;;;;;2.03;1.75;;;;;;;21.63;30.38;100920.88;5132657;27;20195;-72
2023/06/11 08:33:40;;;;;;;3.50;1.77;;;;;;;21.75;30.73;100926.50;5123400;27;20241;-72
2023/06/11 08:36:08;;;;;;;2.35;1.67;;;;;;;21.80;30.62;100919.28;5124656;27;20222;-73
2023/06/11 08:38:37;;;;;;;1.60;1.50;;;;;;;21.83;30.74;100919.16;5129923;27;20549;-66
2023/06/11 08:41:06;;;;;;;3.13;1.73;;;;;;;21.98;30.96;100913.22;5128170;27;20245;-67
2023/06/11 08:43:34;;;;;;;2.20;2.00;;;;;;;22.00;31.00;100919.25;5123133;27;20222;-65
2023/06/11 08:46:02;;;;;;;5.70;1.90;;;;;;;21.89;30.78;100909.25;5127828;27;20196;-65
2023/06/11 08:48:31;;;;;;;2.45;1.63;;;;;;;21.86;30.45;100914.63;5127527;27;20203;-69
2023/06/11 08:51:01;;;;;;;2.83;1.70;;;;;;;21.75;30.77;100918.63;5127125;27;20236;-70
2023/06/11 08:53:29;;;;;;;2.25;1.75;;;;;;;21.81;30.98;100910.50;5129683;27;20245;-70
2023/06/11 08:56:00;;;;;;;2.47;1.88;;;;;;;21.91;30.56;100911.81;5133894;27;20702;-70
2023/06/11 08:58:31;;;;;;;2.30;1.85;;;;;;;22.03;30.23;100906.00;5124889;27;20305;-68
2023/06/11 09:00:59;;;;;;;2.03;1.65;;;;;;;22.11;30.67;100903.03;5121694;27;20622;-68
2023/06/11 09:03:27;;;;;;;2.78;1.80;;;;;;;22.18;30.77;100894.81;5124475;27;20204;-70
2023/06/11 09:05:55;;;;;;;2.22;1.50;;;;;;;22.32;30.84;100899.44;5131667;27;20657;-68
2023/06/11 09:08:23;;;;;;;2.40;1.70;;;;;;;22.48;30.89;100896.09;5133566;27;20199;-68
2023/06/11 09:10:52;;;;;;;1.70;1.60;;;;;;;22.58;29.74;100908.72;5123649;27;20244;-68
2023/06/11 09:13:25;;;;;;;3.78;1.77;;;;;;;22.54;29.61;100906.31;5129199;27;20222;-68
2023/06/11 09:15:55;;;;;;;4.70;1.60;;;;;;;22.55;29.88;100902.75;5122460;27;20259;-68
2023/06/11 09:18:25;;;;;;;2.70;1.92;;;;;;;22.48;30.14;100894.31;5127485;27;20244;-67
2023/06/11 09:20:55;;;;;;;3.33;2.10;;;;;;;22.49;30.00;100896.00;5129450;27;20207;-66
2023/06/11 09:23:28;;;;;;;2.60;1.80;;;;;;;22.60;30.43;100885.00;5130216;27;20636;-66
2023/06/11 09:25:59;;;;;;;2.97;1.80;;;;;;;22.67;30.43;100891.66;5129862;27;20230;-67
2023/06/11 09:28:33;;;;;;;2.92;1.70;;;;;;;22.60;30.02;100893.72;5127511;27;20210;-66
2023/06/11 09:31:03;;;;;;;2.15;1.92;;;;;;;22.75;29.93;100880.75;5126305;27;20195;-64
2023/06/11 09:33:32;;;;;;;2.70;1.70;;;;;;;22.97;29.65;100885.84;5122513;27;20770;-65
2023/06/11 09:36:00;;;;;;;2.60;1.60;;;;;;;23.03;29.36;100877.66;5123844;27;20767;-65
2023/06/11 09:38:29;;;;;;;3.58;1.75;;;;;;;23.17;29.12;100876.97;5132435;27;20723;-65
2023/06/11 09:40:58;;;;;;;2.90;2.05;;;;;;;23.23;27.93;100868.75;5130631;27;20870;-65
2023/06/11 09:43:26;;;;;;;3.05;1.92;;;;;;;23.24;28.19;100875.75;5126885;27;20631;-65
2023/06/11 09:45:56;;;;;;;4.38;2.05;;;;;;;23.17;28.38;100869.94;5127236;27;20210;-65
2023/06/11 09:48:25;;;;;;;2.80;1.80;;;;;;;23.19;28.93;100875.94;5121317;27;20203;-64
2023/06/11 09:50:54;;;;;;;4.47;1.90;;;;;;;23.08;29.40;100875.66;5131318;27;20260;-64
2023/06/11 09:53:23;;;;;;;3.20;1.90;;;;;;;23.08;29.31;100871.22;5128621;27;20609;-64
2023/06/11 09:55:52;;;;;;;1.75;1.65;;;;;;;23.15;29.51;100858.63;5125788;27;20766;-64
2023/06/11 09:58:38;;;;;;;1.67;1.55;;;;;;;23.46;28.76;100870.22;5128329;27;20192;-64
2023/06/11 10:01:07;;;;;;;2.13;1.63;;;;;;;23.80;28.22;100856.16;5128184;27;20580;-64
2023/06/11 10:03:35;;;;;;;2.85;1.60;;;;;;;24.28;26.95;100864.94;5130112;27;20259;-64
2023/06/11 10:06:06;;;;;;;4.07;1.85;;;;;;;24.37;26.07;100859.16;5130397;27;20373;-63
2023/06/11 10:08:36;;;;;;;4.88;1.85;;;;;;;24.82;25.46;100870.69;5138391;27;20514;-65
2023/06/11 10:11:05;;;;;;;1.70;1.60;;;;;;;25.53;23.93;100867.38;5136310;27;20196;-65
2023/06/11 10:13:34;;;;;;;2.05;1.58;;;;;;;26.52;23.46;100854.19;5129580;27;20742;-65
2023/06/11 10:16:03;;;;;;;3.22;1.90;;;;;;;27.82;21.83;100853.28;5134592;27;20551;-66
2023/06/11 10:18:33;;;;;;;2.65;1.88;;;;;;;28.96;20.59;100849.34;5132856;27;20214;-65
2023/06/11 10:21:02;;;;;;;5.82;2.17;;;;;;;29.82;19.79;100846.19;5125139;27;20226;-65
2023/06/11 10:23:37;;;;;;;3.60;1.60;;;;;;;30.14;18.75;100842.78;5130562;27;20537;-63
2023/06/11 10:26:06;;;;;;;1.55;1.35;;;;;;;31.37;17.91;100848.56;5135469;27;20705;-66
2023/06/11 10:28:38;;;;;;;4.18;1.70;;;;;;;32.58;16.46;100833.31;5126927;27;20198;-65
2023/06/11 10:31:06;;;;;;;1.88;1.65;;;;;;;33.17;15.83;100842.13;5131856;27;20199;-65
2023/06/11 10:33:43;;;;;;;2.00;1.80;;;;;;;33.55;15.79;100829.66;5127381;27;20535;-65
2023/06/11 10:36:22;;;;;;;5.97;1.75;;;;;;;34.36;15.39;100829.75;5137194;27;20641;-64
2023/06/11 10:38:52;;;;;;;2.80;2.03;;;;;;;35.00;15.12;100828.63;5139770;27;20218;-64
2023/06/11 10:41:39;;;;;;;3.38;1.88;;;;;;;34.64;14.25;100838.53;5133466;27;20207;-64
2023/06/11 10:44:07;;;;;;;2.05;1.83;;;;;;;32.48;16.33;100829.84;5135493;27;20195;-68
2023/06/11 10:46:46;;;;;;;2.35;1.98;;;;;;;32.20;16.67;100840.31;5129287;27;20195;-63
2023/06/11 10:49:16;;;;;;;4.13;1.67;;;;;;;32.32;15.92;100840.19;5129882;27;20200;-64
2023/06/11 10:51:44;;;;;;;3.05;1.67;;;;;;;32.34;16.02;100846.22;5131365;27;20206;-63
2023/06/11 10:54:23;;;;;;;2.67;1.60;;;;;;;33.24;15.72;100829.03;5134621;27;20207;-65
2023/06/11 10:56:52;;;;;;;2.17;1.95;;;;;;;33.99;15.22;100833.41;5135132;27;20245;-63
2023/06/11 10:59:21;;;;;;;3.20;1.88;;;;;;;33.71;14.36;100834.38;5134642;27;20591;-63
2023/06/11 11:01:53;;;;;;;1.88;1.58;;;;;;;33.68;14.97;100824.81;5127304;27;20227;-64
2023/06/11 11:04:23;;;;;;;2.78;2.08;;;;;;;33.77;14.87;100817.75;5135612;27;20385;-64
2023/06/11 11:06:53;;;;;;;4.90;2.17;;;;;;;33.71;15.19;100837.03;5125325;27;20207;-60
2023/06/11 11:09:22;;;;;;;6.22;2.28;;;;;;;33.95;15.43;100826.63;5134327;27;20200;-64
2023/06/11 11:11:52;;;;;;;3.78;1.90;;;;;;;34.50;14.80;100823.91;5137601;27;20545;-64
2023/06/11 11:14:20;;;;;;;1.92;1.80;;;;;;;34.75;14.58;100824.91;5131784;27;20631;-64
2023/06/11 11:16:48;;;;;;;3.05;2.00;;;;;;;34.14;15.25;100831.88;5129861;27;20289;-64
2023/06/11 11:19:16;;;;;;;3.92;2.00;;;;;;;33.70;15.16;100822.84;5118439;27;20760;-64
2023/06/11 11:21:52;;;;;;;2.00;1.80;;;;;;;33.94;15.59;100821.41;5130100;27;20230;-63
2023/06/11 11:24:20;;;;;;;4.10;1.90;;;;;;;34.41;14.82;100819.41;5133590;27;20659;-65
2023/06/11 11:26:48;;;;;;;2.35;1.80;;;;;;;34.66;14.51;100822.34;5135123;27;20662;-64
2023/06/11 11:29:16;;;;;;;1.95;1.70;;;;;;;33.73;14.83;100817.19;5124280;27;20203;-65
2023/06/11 11:31:46;;;;;;;3.53;1.90;;;;;;;32.97;15.52;100825.31;5127145;27;20754;-64
2023/06/11 11:34:14;;;;;;;3.50;2.20;;;;;;;32.50;16.50;100819.84;5134011;27;20195;-65